NCAR-RAP Real-Time Weather Data

Output produced by METARs form (08 May 2021  02:22 UTC)
found at http://weather.rap.ucar.edu/surface/
 
KOLM 080154Z 25010G15KT 10SM CLR 12/02 A3029 RMK AO2 SLP258 T01170017
KOLM 080054Z 26012KT 10SM BKN060 13/01 A3028 RMK AO2 SLP254 T01330011
KOLM 072354Z 23012KT 10SM BKN060 13/01 A3026 RMK AO2 SLP249 T01330006 10139 20100 51003
KOLM 072254Z 25009G16KT 230V290 10SM FEW055 13/01 A3026 RMK AO2 SLP248 T01330011
KOLM 072154Z 26014G25KT 10SM FEW039 BKN090 13/03 A3026 RMK AO2 SLP249 T01280028
KOLM 072054Z COR 28018G28KT 10SM SCT025 BKN055 12/02 A3025 RMK AO2 PK WND 28028/2051 SLP246 T01220017 51007
KOLM 071954Z 28010KT 10SM FEW044 12/03 A3025 RMK AO2 SLP244 T01220028
KOLM 071854Z 24011KT 10SM FEW028 SCT038 BKN049 12/04 A3024 RMK AO2 SLP243 T01170039
KOLM 071754Z COR 24009KT 10SM SCT025 BKN055 10/04 A3023 RMK AO2 SLP239 60025 T01000039 10106 20061 53010
KOLM 071727Z 23009KT 10SM SCT019 SCT075 BKN090 09/05 A3023 RMK AO2 T00890050
KOLM 071707Z 21010G18KT 10SM SCT019 BKN027 BKN110 09/05 A3022 RMK AO2 T00890050
KOLM 071654Z 22010KT 10SM FEW018 SCT025 BKN080 10/06 A3022 RMK AO2 SLP234 T01000056
KOLM 071639Z 19010KT 10SM SCT012 BKN080 09/06 A3021 RMK AO2 T00940061
KOLM 071619Z 22008KT 10SM BKN014 08/06 A3021 RMK AO2 T00830056
KOLM 071554Z 20010KT 10SM FEW110 08/06 A3021 RMK AO2 SLP232 T00830061
KOLM 071454Z 20008KT 10SM FEW031 SCT049 BKN110 07/06 A3020 RMK AO2 RAE05 SLP229 P0000 60025 T00670056 53010
KOLM 071354Z AUTO 19006KT 10SM -RA OVC038 06/04 A3019 RMK AO2 SLP224 P0014 T00610044
KOLM 071339Z AUTO 21005KT 3SM -RA BR OVC031 06/04 A3019 RMK AO2 P0013 T00610044